DAUU

Ain el Beida Airport

Ouargla, Algeria
METAR DAUU 161900Z 31004KT CAVOK 09/M04 Q1018
Observed Flight Rules
Jan-16 @ 19:00 UTC (27 minutes ago) Visual Flight Rules
Wind Visibility Clouds
310° at 4 knots 10,000+ meters
  • Clear skies
Temperatures Readings
Current 9°C / 48°F
Dewpoint -4°C / 25°F
Humidity 40%
Altimeter 30.06" Hg
Pressure 1017.92 hPa
Elevation 141
METAR DAUU 161900Z 31004KT CAVOK 09/M04 Q1018
Observed Flight Rules
Jan-16 @ 19:00 UTC
(27 minutes ago)
VFR
Wind Visibility
310° at 4 knots 10,000+ meters
Clouds
  • Clear skies
Temperature Dewpoint
9°C / 48°F -4°C / 25°F
Humidity Altimeter Pressure
40% 30.06" Hg 1017.92 hPa